Lenox, MA (01240)

12:44 AM EDT on August 22, 2014 (GMT -0400)
KMARICHM2 | Change Station
CLOSE
Current Station
Personal Weather Station
Location: Richmond, MA
Elevation: 1073 ft
Nearby Weather Stations

Elev 1073 ft 42.36 °N, 73.37 °W | Updated 58 seconds ago

Overcast
Overcast
64.6 °F
Feels Like 64.6 °F
N
0.0
Wind Variable Wind from East
Gusts 0.0 mph

Today
High -- | Low -- °F
--% Chance of Precip.
Yesterday
High -- | Low -- °F
Precip. -- in
6:07 AM 7:43 PM
Waning Crescent, 10% visible
Pressure 30.00 in
Visibility 10.0 miles
Clouds Overcast 1300 ft
Dew Point 62 °F
Humidity 93%
Rainfall 0.00 in
Snow Depth Not available.
UV 0 out of 12
Pollen 5.80 out of 12
PM2.5 Moderate
Flu Activity Not available.
METAR KPSF 220354Z AUTO 06003KT 10SM OVC013 17/17 A3006 RMK AO2 RAB02E53 SLP159 P0009 T01720167

More Conditions Fewer Conditions

Pressure 30.00 in
Visibility 10.0 miles
Clouds Overcast 1300 ft
Dew Point 62 °F
Humidity 93%
Rainfall 0.00 in
Snow Depth Not available.
UV 0 out of 12
Pollen 5.80 out of 12
PM2.5 Moderate
Flu Activity Not available.
METAR KPSF 220354Z AUTO 06003KT 10SM OVC013 17/17 A3006 RMK AO2 RAB02E53 SLP159 P0009 T01720167

More Conditions Fewer Conditions

10-Day Weather Forecast

Almanac

Astronomy

Aug. 22, 2014 Rise Set
Actual Time 6:07 AM EDT 7:43 PM EDT
Civil Twilight 5:37 AM EDT 8:13 PM EDT
Nautical Twilight 5:02 AM EDT 8:48 PM EDT
Astronomical Twilight 4:23 AM EDT 9:26 PM EDT
Moon 3:26 AM EDT 5:51 PM EDT
Length of Visible Light 14h 35m
Length of Day
13h 35m
Tomorrow will be 2m 38s shorter.
Waning Crescent, 10% of the Moon is Illuminated
Today
Waning Crescent
Aug 25
New
Sep 2
First Quarter
Sep 8
Full
Sep 15
Last Quarter

Today's Extremes

State Highs State Lows

Community

WunderPhotos

Upload Photos

1,746,130 photos uploaded!

Nearby

Air Quality

  Air Quality AQ Index Pollutant
Yesterday Moderate
PM2.5
Current Moderate
PM2.5
Thursday Good
PM2.5
Thursday Good
OZONE
Friday Good
PM2.5
Friday Good
OZONE

Snow Depth

Station Depth Elevation
No new snow has been reported.

Earthquake Activity

City Distance Mag. Time & Date
No recent earthquake activity has been reported nearby.
Minimum magnitude displayed is 2.5.

Coastal Water Temperatures

Place Temperature
No Stations Reporting

Nearby Weather Stations